sensor_id;sensor_type;location;lat;lon;timestamp;temperature;humidity
21772;DHT22;11047;47.904;8.110;2023-06-04T00:00:17;11.10;99.90
21772;DHT22;11047;47.904;8.110;2023-06-04T00:02:44;11.10;99.90
21772;DHT22;11047;47.904;8.110;2023-06-04T00:05:11;11.10;99.90
21772;DHT22;11047;47.904;8.110;2023-06-04T00:07:38;11.10;99.90
21772;DHT22;11047;47.904;8.110;2023-06-04T00:10:07;11.10;99.90
21772;DHT22;11047;47.904;8.110;2023-06-04T00:12:34;11.10;99.90
21772;DHT22;11047;47.904;8.110;2023-06-04T00:15:01;11.00;99.90
21772;DHT22;11047;47.904;8.110;2023-06-04T00:17:28;11.00;99.90
21772;DHT22;11047;47.904;8.110;2023-06-04T00:19:55;11.20;99.90
21772;DHT22;11047;47.904;8.110;2023-06-04T00:22:22;11.00;99.90
21772;DHT22;11047;47.904;8.110;2023-06-04T00:24:49;11.10;99.90
21772;DHT22;11047;47.904;8.110;2023-06-04T00:27:17;11.00;99.90
21772;DHT22;11047;47.904;8.110;2023-06-04T00:29:44;11.00;99.90
21772;DHT22;11047;47.904;8.110;2023-06-04T00:32:11;11.00;99.90
21772;DHT22;11047;47.904;8.110;2023-06-04T00:34:38;10.90;99.90
21772;DHT22;11047;47.904;8.110;2023-06-04T00:37:05;10.90;99.90
21772;DHT22;11047;47.904;8.110;2023-06-04T00:39:32;10.90;99.90
21772;DHT22;11047;47.904;8.110;2023-06-04T00:42:00;10.90;99.90
21772;DHT22;11047;47.904;8.110;2023-06-04T00:44:28;11.00;99.90
21772;DHT22;11047;47.904;8.110;2023-06-04T00:46:56;11.00;99.90
21772;DHT22;11047;47.904;8.110;2023-06-04T00:49:23;10.90;99.90
21772;DHT22;11047;47.904;8.110;2023-06-04T00:51:50;10.80;99.90
21772;DHT22;11047;47.904;8.110;2023-06-04T00:54:19;10.90;99.90
21772;DHT22;11047;47.904;8.110;2023-06-04T00:56:47;10.80;99.90
21772;DHT22;11047;47.904;8.110;2023-06-04T00:59:14;10.60;99.90
21772;DHT22;11047;47.904;8.110;2023-06-04T01:01:47;10.60;99.90
21772;DHT22;11047;47.904;8.110;2023-06-04T01:04:21;10.60;99.90
21772;DHT22;11047;47.904;8.110;2023-06-04T01:06:51;10.60;99.90
21772;DHT22;11047;47.904;8.110;2023-06-04T01:09:20;10.70;99.90
21772;DHT22;11047;47.904;8.110;2023-06-04T01:11:47;10.80;99.90
21772;DHT22;11047;47.904;8.110;2023-06-04T01:14:14;10.70;99.90
21772;DHT22;11047;47.904;8.110;2023-06-04T01:16:49;10.60;99.90
21772;DHT22;11047;47.904;8.110;2023-06-04T01:22:32;10.50;99.90
21772;DHT22;11047;47.904;8.110;2023-06-04T01:25:03;10.40;99.90
21772;DHT22;11047;47.904;8.110;2023-06-04T01:27:30;10.40;99.90
21772;DHT22;11047;47.904;8.110;2023-06-04T01:29:58;10.40;99.90
21772;DHT22;11047;47.904;8.110;2023-06-04T01:32:27;10.30;99.90
21772;DHT22;11047;47.904;8.110;2023-06-04T01:34:55;10.30;99.90
21772;DHT22;11047;47.904;8.110;2023-06-04T01:37:22;10.30;99.90
21772;DHT22;11047;47.904;8.110;2023-06-04T01:39:49;10.30;99.90
21772;DHT22;11047;47.904;8.110;2023-06-04T01:42:16;10.30;99.90
21772;DHT22;11047;47.904;8.110;2023-06-04T01:44:42;10.30;99.90
21772;DHT22;11047;47.904;8.110;2023-06-04T01:47:10;10.30;99.90
21772;DHT22;11047;47.904;8.110;2023-06-04T01:49:38;10.30;99.90
21772;DHT22;11047;47.904;8.110;2023-06-04T01:52:06;10.30;99.90
21772;DHT22;11047;47.904;8.110;2023-06-04T01:54:33;10.20;99.90
21772;DHT22;11047;47.904;8.110;2023-06-04T01:57:01;10.20;99.90
21772;DHT22;11047;47.904;8.110;2023-06-04T01:59:28;10.10;99.90
21772;DHT22;11047;47.904;8.110;2023-06-04T02:01:57;10.10;99.90
21772;DHT22;11047;47.904;8.110;2023-06-04T02:04:24;10.10;99.90
21772;DHT22;11047;47.904;8.110;2023-06-04T02:06:53;10.10;99.90
21772;DHT22;11047;47.904;8.110;2023-06-04T02:09:19;10.10;99.90
21772;DHT22;11047;47.904;8.110;2023-06-04T02:11:46;10.10;99.90
21772;DHT22;11047;47.904;8.110;2023-06-04T02:14:13;10.00;99.90
21772;DHT22;11047;47.904;8.110;2023-06-04T02:16:40;9.90;99.90
21772;DHT22;11047;47.904;8.110;2023-06-04T02:19:07;10.00;99.90
21772;DHT22;11047;47.904;8.110;2023-06-04T02:21:34;10.00;99.90
21772;DHT22;11047;47.904;8.110;2023-06-04T02:24:02;10.00;99.90
21772;DHT22;11047;47.904;8.110;2023-06-04T02:26:29;10.00;99.90
21772;DHT22;11047;47.904;8.110;2023-06-04T02:28:56;10.00;99.90
21772;DHT22;11047;47.904;8.110;2023-06-04T02:31:23;10.00;99.90
21772;DHT22;11047;47.904;8.110;2023-06-04T02:33:50;10.10;99.90
21772;DHT22;11047;47.904;8.110;2023-06-04T02:36:17;10.00;99.90
21772;DHT22;11047;47.904;8.110;2023-06-04T02:38:44;10.00;99.90
21772;DHT22;11047;47.904;8.110;2023-06-04T02:41:12;10.10;99.90
21772;DHT22;11047;47.904;8.110;2023-06-04T02:43:39;10.00;99.90
21772;DHT22;11047;47.904;8.110;2023-06-04T02:46:06;10.00;99.90
21772;DHT22;11047;47.904;8.110;2023-06-04T02:48:32;10.10;99.90
21772;DHT22;11047;47.904;8.110;2023-06-04T02:50:59;9.90;99.90
21772;DHT22;11047;47.904;8.110;2023-06-04T02:53:26;9.90;99.90
21772;DHT22;11047;47.904;8.110;2023-06-04T02:55:53;9.90;99.90
21772;DHT22;11047;47.904;8.110;2023-06-04T02:58:21;9.80;99.90
21772;DHT22;11047;47.904;8.110;2023-06-04T03:00:52;9.80;99.90
21772;DHT22;11047;47.904;8.110;2023-06-04T03:03:19;9.80;99.90
21772;DHT22;11047;47.904;8.110;2023-06-04T03:05:46;9.80;99.90
21772;DHT22;11047;47.904;8.110;2023-06-04T03:08:13;9.80;99.90
21772;DHT22;11047;47.904;8.110;2023-06-04T03:10:40;9.70;99.90
21772;DHT22;11047;47.904;8.110;2023-06-04T03:13:07;9.70;99.90
21772;DHT22;11047;47.904;8.110;2023-06-04T03:15:35;9.70;99.90
21772;DHT22;11047;47.904;8.110;2023-06-04T03:18:04;9.60;99.90
21772;DHT22;11047;47.904;8.110;2023-06-04T03:20:31;9.60;99.90
21772;DHT22;11047;47.904;8.110;2023-06-04T03:23:04;9.60;99.90
21772;DHT22;11047;47.904;8.110;2023-06-04T03:25:31;9.60;99.90
21772;DHT22;11047;47.904;8.110;2023-06-04T03:27:58;9.60;99.90
21772;DHT22;11047;47.904;8.110;2023-06-04T03:30:24;9.60;99.90
21772;DHT22;11047;47.904;8.110;2023-06-04T03:32:53;9.60;99.90
21772;DHT22;11047;47.904;8.110;2023-06-04T03:35:20;9.60;99.90
21772;DHT22;11047;47.904;8.110;2023-06-04T03:37:46;9.50;99.90
21772;DHT22;11047;47.904;8.110;2023-06-04T03:40:13;9.60;99.90
21772;DHT22;11047;47.904;8.110;2023-06-04T03:42:41;9.50;99.90
21772;DHT22;11047;47.904;8.110;2023-06-04T03:45:08;9.50;99.90
21772;DHT22;11047;47.904;8.110;2023-06-04T03:47:35;9.40;99.90
21772;DHT22;11047;47.904;8.110;2023-06-04T03:50:04;9.30;99.90
21772;DHT22;11047;47.904;8.110;2023-06-04T03:52:31;9.30;99.90
21772;DHT22;11047;47.904;8.110;2023-06-04T03:54:59;9.30;99.90
21772;DHT22;11047;47.904;8.110;2023-06-04T03:57:27;9.30;99.90
21772;DHT22;11047;47.904;8.110;2023-06-04T03:59:53;9.40;99.90
21772;DHT22;11047;47.904;8.110;2023-06-04T04:02:20;9.40;99.90
21772;DHT22;11047;47.904;8.110;2023-06-04T04:04:47;9.40;99.90
21772;DHT22;11047;47.904;8.110;2023-06-04T04:07:16;9.50;99.90
21772;DHT22;11047;47.904;8.110;2023-06-04T04:09:43;9.40;99.90
21772;DHT22;11047;47.904;8.110;2023-06-04T04:12:10;9.30;99.90
21772;DHT22;11047;47.904;8.110;2023-06-04T04:14:37;9.40;99.90
21772;DHT22;11047;47.904;8.110;2023-06-04T04:17:04;9.40;99.90
21772;DHT22;11047;47.904;8.110;2023-06-04T04:19:31;9.60;99.90
21772;DHT22;11047;47.904;8.110;2023-06-04T04:21:58;9.60;99.90
21772;DHT22;11047;47.904;8.110;2023-06-04T04:24:27;9.80;99.90
21772;DHT22;11047;47.904;8.110;2023-06-04T04:26:54;9.80;99.90
21772;DHT22;11047;47.904;8.110;2023-06-04T04:29:21;9.70;99.90
21772;DHT22;11047;47.904;8.110;2023-06-04T04:31:50;9.80;99.90
21772;DHT22;11047;47.904;8.110;2023-06-04T04:34:17;9.80;99.90
21772;DHT22;11047;47.904;8.110;2023-06-04T04:36:46;9.80;99.90
21772;DHT22;11047;47.904;8.110;2023-06-04T04:39:18;9.70;99.90
21772;DHT22;11047;47.904;8.110;2023-06-04T04:41:47;9.70;99.90
21772;DHT22;11047;47.904;8.110;2023-06-04T04:44:14;9.90;99.90
21772;DHT22;11047;47.904;8.110;2023-06-04T04:46:41;10.00;99.90
21772;DHT22;11047;47.904;8.110;2023-06-04T04:49:08;10.10;99.90
21772;DHT22;11047;47.904;8.110;2023-06-04T04:51:35;10.20;99.90
21772;DHT22;11047;47.904;8.110;2023-06-04T04:54:02;10.30;99.90
21772;DHT22;11047;47.904;8.110;2023-06-04T04:56:32;10.40;99.90
21772;DHT22;11047;47.904;8.110;2023-06-04T04:59:01;10.40;99.90
21772;DHT22;11047;47.904;8.110;2023-06-04T05:01:28;10.60;99.90
21772;DHT22;11047;47.904;8.110;2023-06-04T05:03:55;10.60;99.90
21772;DHT22;11047;47.904;8.110;2023-06-04T05:06:22;10.60;99.90
21772;DHT22;11047;47.904;8.110;2023-06-04T05:08:49;10.70;99.90
21772;DHT22;11047;47.904;8.110;2023-06-04T05:11:16;10.80;99.90
21772;DHT22;11047;47.904;8.110;2023-06-04T05:13:43;10.90;99.90
21772;DHT22;11047;47.904;8.110;2023-06-04T05:16:11;11.10;99.90
21772;DHT22;11047;47.904;8.110;2023-06-04T05:18:38;11.30;99.90
21772;DHT22;11047;47.904;8.110;2023-06-04T05:21:07;11.30;99.90
21772;DHT22;11047;47.904;8.110;2023-06-04T05:23:34;11.40;99.90
21772;DHT22;11047;47.904;8.110;2023-06-04T05:26:02;11.60;99.90
21772;DHT22;11047;47.904;8.110;2023-06-04T05:28:30;11.70;99.90
21772;DHT22;11047;47.904;8.110;2023-06-04T05:30:58;11.80;99.90
21772;DHT22;11047;47.904;8.110;2023-06-04T05:33:27;11.80;99.90
21772;DHT22;11047;47.904;8.110;2023-06-04T05:35:54;12.00;99.90
21772;DHT22;11047;47.904;8.110;2023-06-04T05:38:23;12.20;99.90
21772;DHT22;11047;47.904;8.110;2023-06-04T05:40:54;12.30;99.90
21772;DHT22;11047;47.904;8.110;2023-06-04T05:43:21;12.30;99.90
21772;DHT22;11047;47.904;8.110;2023-06-04T05:45:48;12.40;99.90
21772;DHT22;11047;47.904;8.110;2023-06-04T05:48:17;12.50;99.90
21772;DHT22;11047;47.904;8.110;2023-06-04T05:50:45;12.60;99.90
21772;DHT22;11047;47.904;8.110;2023-06-04T05:53:13;12.70;99.90
21772;DHT22;11047;47.904;8.110;2023-06-04T05:55:39;12.80;99.90
21772;DHT22;11047;47.904;8.110;2023-06-04T05:58:08;13.00;99.90
21772;DHT22;11047;47.904;8.110;2023-06-04T06:00:35;13.10;99.90
21772;DHT22;11047;47.904;8.110;2023-06-04T06:03:02;13.20;99.90
21772;DHT22;11047;47.904;8.110;2023-06-04T06:05:31;13.30;99.90
21772;DHT22;11047;47.904;8.110;2023-06-04T06:08:00;13.40;99.90
21772;DHT22;11047;47.904;8.110;2023-06-04T06:10:27;13.50;99.90
21772;DHT22;11047;47.904;8.110;2023-06-04T06:12:55;13.70;99.90
21772;DHT22;11047;47.904;8.110;2023-06-04T06:15:22;13.80;99.90
21772;DHT22;11047;47.904;8.110;2023-06-04T06:17:49;13.90;99.90
21772;DHT22;11047;47.904;8.110;2023-06-04T06:20:17;14.00;99.90
21772;DHT22;11047;47.904;8.110;2023-06-04T06:22:44;14.10;99.90
21772;DHT22;11047;47.904;8.110;2023-06-04T06:25:13;14.10;99.90
21772;DHT22;11047;47.904;8.110;2023-06-04T06:27:41;14.20;99.90
21772;DHT22;11047;47.904;8.110;2023-06-04T06:30:09;14.30;99.90
21772;DHT22;11047;47.904;8.110;2023-06-04T06:32:36;14.50;99.90
21772;DHT22;11047;47.904;8.110;2023-06-04T06:35:03;14.50;99.90
21772;DHT22;11047;47.904;8.110;2023-06-04T06:37:30;14.60;99.90
21772;DHT22;11047;47.904;8.110;2023-06-04T06:39:57;14.70;99.90
21772;DHT22;11047;47.904;8.110;2023-06-04T06:42:26;14.70;99.90
21772;DHT22;11047;47.904;8.110;2023-06-04T06:44:52;14.80;99.90
21772;DHT22;11047;47.904;8.110;2023-06-04T06:47:20;15.00;99.90
21772;DHT22;11047;47.904;8.110;2023-06-04T06:49:46;15.00;99.90
21772;DHT22;11047;47.904;8.110;2023-06-04T06:52:13;15.20;99.90
21772;DHT22;11047;47.904;8.110;2023-06-04T06:54:44;15.40;99.90
21772;DHT22;11047;47.904;8.110;2023-06-04T06:57:11;15.50;99.90
21772;DHT22;11047;47.904;8.110;2023-06-04T06:59:40;15.50;99.90
21772;DHT22;11047;47.904;8.110;2023-06-04T07:02:07;15.70;99.90
21772;DHT22;11047;47.904;8.110;2023-06-04T07:04:34;15.90;99.90
21772;DHT22;11047;47.904;8.110;2023-06-04T07:07:01;16.10;99.90
21772;DHT22;11047;47.904;8.110;2023-06-04T07:09:28;16.00;99.90
21772;DHT22;11047;47.904;8.110;2023-06-04T07:11:55;16.00;99.90
21772;DHT22;11047;47.904;8.110;2023-06-04T07:14:22;16.00;99.90
21772;DHT22;11047;47.904;8.110;2023-06-04T07:16:50;16.00;99.90
21772;DHT22;11047;47.904;8.110;2023-06-04T07:19:17;15.90;99.90
21772;DHT22;11047;47.904;8.110;2023-06-04T07:21:44;15.90;99.90
21772;DHT22;11047;47.904;8.110;2023-06-04T07:24:11;15.90;99.90
21772;DHT22;11047;47.904;8.110;2023-06-04T07:26:38;15.90;99.90
21772;DHT22;11047;47.904;8.110;2023-06-04T07:29:05;15.90;99.90
21772;DHT22;11047;47.904;8.110;2023-06-04T07:31:32;16.10;99.90
21772;DHT22;11047;47.904;8.110;2023-06-04T07:34:00;16.50;99.90
21772;DHT22;11047;47.904;8.110;2023-06-04T07:36:27;16.80;99.90
21772;DHT22;11047;47.904;8.110;2023-06-04T07:38:53;17.20;99.90
21772;DHT22;11047;47.904;8.110;2023-06-04T07:41:20;17.40;99.90
21772;DHT22;11047;47.904;8.110;2023-06-04T07:43:47;17.60;99.90
21772;DHT22;11047;47.904;8.110;2023-06-04T07:46:14;17.60;99.90
21772;DHT22;11047;47.904;8.110;2023-06-04T07:48:44;17.70;99.90
21772;DHT22;11047;47.904;8.110;2023-06-04T07:51:13;17.70;99.90
21772;DHT22;11047;47.904;8.110;2023-06-04T07:53:41;17.60;99.90
21772;DHT22;11047;47.904;8.110;2023-06-04T07:56:08;17.50;99.90
21772;DHT22;11047;47.904;8.110;2023-06-04T07:58:34;17.60;99.90
21772;DHT22;11047;47.904;8.110;2023-06-04T08:01:01;17.70;99.90
21772;DHT22;11047;47.904;8.110;2023-06-04T08:03:28;17.80;99.90
21772;DHT22;11047;47.904;8.110;2023-06-04T08:05:55;17.80;99.90
21772;DHT22;11047;47.904;8.110;2023-06-04T08:08:23;17.80;99.90
21772;DHT22;11047;47.904;8.110;2023-06-04T08:10:50;18.00;99.90
21772;DHT22;11047;47.904;8.110;2023-06-04T08:13:17;18.20;99.90
21772;DHT22;11047;47.904;8.110;2023-06-04T08:15:44;18.20;99.90
21772;DHT22;11047;47.904;8.110;2023-06-04T08:18:11;18.20;99.90
21772;DHT22;11047;47.904;8.110;2023-06-04T08:20:37;18.20;99.90
21772;DHT22;11047;47.904;8.110;2023-06-04T08:23:04;18.30;99.90
21772;DHT22;11047;47.904;8.110;2023-06-04T08:25:33;18.10;99.90
21772;DHT22;11047;47.904;8.110;2023-06-04T08:28:00;18.20;99.90
21772;DHT22;11047;47.904;8.110;2023-06-04T08:30:26;18.10;99.90
21772;DHT22;11047;47.904;8.110;2023-06-04T08:32:54;18.10;99.90
21772;DHT22;11047;47.904;8.110;2023-06-04T08:35:21;18.60;99.90
21772;DHT22;11047;47.904;8.110;2023-06-04T08:37:48;19.10;99.90
21772;DHT22;11047;47.904;8.110;2023-06-04T08:40:15;19.60;99.90
21772;DHT22;11047;47.904;8.110;2023-06-04T08:42:44;20.10;99.90
21772;DHT22;11047;47.904;8.110;2023-06-04T08:45:12;20.30;99.90
21772;DHT22;11047;47.904;8.110;2023-06-04T08:47:43;20.50;99.90
21772;DHT22;11047;47.904;8.110;2023-06-04T08:50:12;20.60;99.90
21772;DHT22;11047;47.904;8.110;2023-06-04T08:52:40;20.80;99.90
21772;DHT22;11047;47.904;8.110;2023-06-04T08:55:08;21.00;99.90
21772;DHT22;11047;47.904;8.110;2023-06-04T08:57:38;20.70;99.90
21772;DHT22;11047;47.904;8.110;2023-06-04T09:00:08;20.60;99.90
21772;DHT22;11047;47.904;8.110;2023-06-04T09:02:36;20.50;99.90
21772;DHT22;11047;47.904;8.110;2023-06-04T09:05:04;20.50;99.90
21772;DHT22;11047;47.904;8.110;2023-06-04T09:07:35;20.40;99.90
21772;DHT22;11047;47.904;8.110;2023-06-04T09:10:02;20.30;99.90
21772;DHT22;11047;47.904;8.110;2023-06-04T09:12:31;20.00;99.90
21772;DHT22;11047;47.904;8.110;2023-06-04T09:14:58;20.00;99.90
21772;DHT22;11047;47.904;8.110;2023-06-04T09:17:27;20.00;99.90
21772;DHT22;11047;47.904;8.110;2023-06-04T09:19:55;20.30;99.90
21772;DHT22;11047;47.904;8.110;2023-06-04T09:22:32;20.60;99.90
21772;DHT22;11047;47.904;8.110;2023-06-04T09:24:59;21.20;99.90
21772;DHT22;11047;47.904;8.110;2023-06-04T09:27:26;21.40;99.90
21772;DHT22;11047;47.904;8.110;2023-06-04T09:29:55;21.70;99.90
21772;DHT22;11047;47.904;8.110;2023-06-04T09:32:22;22.00;99.90
21772;DHT22;11047;47.904;8.110;2023-06-04T09:34:50;22.60;99.90
21772;DHT22;11047;47.904;8.110;2023-06-04T09:37:18;22.30;99.90
21772;DHT22;11047;47.904;8.110;2023-06-04T09:39:52;22.40;99.90
21772;DHT22;11047;47.904;8.110;2023-06-04T09:42:20;22.40;99.90
21772;DHT22;11047;47.904;8.110;2023-06-04T09:44:48;22.60;99.90
21772;DHT22;11047;47.904;8.110;2023-06-04T09:47:15;22.50;99.90
21772;DHT22;11047;47.904;8.110;2023-06-04T09:49:42;22.10;99.90
21772;DHT22;11047;47.904;8.110;2023-06-04T09:52:10;21.70;99.90
21772;DHT22;11047;47.904;8.110;2023-06-04T09:54:39;21.70;99.90
21772;DHT22;11047;47.904;8.110;2023-06-04T09:57:14;21.80;99.90
21772;DHT22;11047;47.904;8.110;2023-06-04T09:59:44;21.90;99.90
21772;DHT22;11047;47.904;8.110;2023-06-04T10:02:12;22.10;99.90
21772;DHT22;11047;47.904;8.110;2023-06-04T10:04:41;22.30;99.90
21772;DHT22;11047;47.904;8.110;2023-06-04T10:07:12;22.60;99.90
21772;DHT22;11047;47.904;8.110;2023-06-04T10:09:43;22.70;99.90
21772;DHT22;11047;47.904;8.110;2023-06-04T10:12:13;22.80;99.90
21772;DHT22;11047;47.904;8.110;2023-06-04T10:14:45;22.90;99.90
21772;DHT22;11047;47.904;8.110;2023-06-04T10:17:15;22.60;99.90
21772;DHT22;11047;47.904;8.110;2023-06-04T10:19:44;22.50;99.90
21772;DHT22;11047;47.904;8.110;2023-06-04T10:22:12;21.90;99.90
21772;DHT22;11047;47.904;8.110;2023-06-04T10:24:40;21.70;99.90
21772;DHT22;11047;47.904;8.110;2023-06-04T10:27:07;22.10;99.90
21772;DHT22;11047;47.904;8.110;2023-06-04T10:29:36;22.30;99.90
21772;DHT22;11047;47.904;8.110;2023-06-04T10:32:04;22.30;99.90
21772;DHT22;11047;47.904;8.110;2023-06-04T10:34:31;22.30;99.90
21772;DHT22;11047;47.904;8.110;2023-06-04T10:36:58;22.30;99.90
21772;DHT22;11047;47.904;8.110;2023-06-04T10:39:27;22.30;99.90
21772;DHT22;11047;47.904;8.110;2023-06-04T10:41:59;22.30;99.90
21772;DHT22;11047;47.904;8.110;2023-06-04T10:44:26;22.30;99.90
21772;DHT22;11047;47.904;8.110;2023-06-04T10:46:53;22.10;99.90
21772;DHT22;11047;47.904;8.110;2023-06-04T10:49:26;22.20;99.90
21772;DHT22;11047;47.904;8.110;2023-06-04T10:51:54;22.40;99.90
21772;DHT22;11047;47.904;8.110;2023-06-04T10:54:23;22.50;99.90
21772;DHT22;11047;47.904;8.110;2023-06-04T10:56:53;22.50;99.90
21772;DHT22;11047;47.904;8.110;2023-06-04T10:59:20;22.60;99.90
21772;DHT22;11047;47.904;8.110;2023-06-04T11:01:47;22.40;99.90
21772;DHT22;11047;47.904;8.110;2023-06-04T11:04:24;22.40;99.90
21772;DHT22;11047;47.904;8.110;2023-06-04T11:07:01;22.40;99.90
21772;DHT22;11047;47.904;8.110;2023-06-04T11:09:29;22.20;99.90
21772;DHT22;11047;47.904;8.110;2023-06-04T11:11:58;22.40;99.90
21772;DHT22;11047;47.904;8.110;2023-06-04T11:14:25;22.50;99.90
21772;DHT22;11047;47.904;8.110;2023-06-04T11:16:52;22.60;99.90
21772;DHT22;11047;47.904;8.110;2023-06-04T11:19:19;22.60;99.90
21772;DHT22;11047;47.904;8.110;2023-06-04T11:21:47;22.40;99.90
21772;DHT22;11047;47.904;8.110;2023-06-04T11:24:15;22.40;99.90
21772;DHT22;11047;47.904;8.110;2023-06-04T11:26:42;22.30;99.90
21772;DHT22;11047;47.904;8.110;2023-06-04T11:29:12;22.30;99.90
21772;DHT22;11047;47.904;8.110;2023-06-04T11:31:42;22.30;99.90
21772;DHT22;11047;47.904;8.110;2023-06-04T11:34:09;22.40;99.90
21772;DHT22;11047;47.904;8.110;2023-06-04T11:36:38;22.30;99.90
21772;DHT22;11047;47.904;8.110;2023-06-04T11:39:05;22.50;99.90
21772;DHT22;11047;47.904;8.110;2023-06-04T11:41:33;22.60;99.90
21772;DHT22;11047;47.904;8.110;2023-06-04T11:44:03;22.90;99.90
21772;DHT22;11047;47.904;8.110;2023-06-04T11:46:32;22.90;99.90
21772;DHT22;11047;47.904;8.110;2023-06-04T11:48:59;22.80;99.90
21772;DHT22;11047;47.904;8.110;2023-06-04T11:51:26;22.90;99.90
21772;DHT22;11047;47.904;8.110;2023-06-04T11:53:53;22.90;99.90
21772;DHT22;11047;47.904;8.110;2023-06-04T11:56:22;23.20;99.90
21772;DHT22;11047;47.904;8.110;2023-06-04T11:58:51;23.60;99.90
21772;DHT22;11047;47.904;8.110;2023-06-04T12:01:18;24.00;99.90
21772;DHT22;11047;47.904;8.110;2023-06-04T12:03:47;23.80;99.90
21772;DHT22;11047;47.904;8.110;2023-06-04T12:06:15;23.40;99.90
21772;DHT22;11047;47.904;8.110;2023-06-04T12:08:46;23.00;99.90
21772;DHT22;11047;47.904;8.110;2023-06-04T12:11:26;22.60;99.90
21772;DHT22;11047;47.904;8.110;2023-06-04T12:13:54;22.50;99.90
21772;DHT22;11047;47.904;8.110;2023-06-04T12:16:21;22.30;99.90
21772;DHT22;11047;47.904;8.110;2023-06-04T12:18:50;22.10;99.90
21772;DHT22;11047;47.904;8.110;2023-06-04T12:21:23;21.90;99.90
21772;DHT22;11047;47.904;8.110;2023-06-04T12:23:53;21.80;99.90
21772;DHT22;11047;47.904;8.110;2023-06-04T12:26:22;21.80;99.90
21772;DHT22;11047;47.904;8.110;2023-06-04T12:29:01;21.80;99.90
21772;DHT22;11047;47.904;8.110;2023-06-04T12:31:29;21.70;99.90
21772;DHT22;11047;47.904;8.110;2023-06-04T12:34:01;21.80;99.90
21772;DHT22;11047;47.904;8.110;2023-06-04T12:36:28;21.80;99.90
21772;DHT22;11047;47.904;8.110;2023-06-04T12:38:58;21.90;99.90
21772;DHT22;11047;47.904;8.110;2023-06-04T12:41:25;21.90;99.90
21772;DHT22;11047;47.904;8.110;2023-06-04T12:43:53;21.90;99.90
21772;DHT22;11047;47.904;8.110;2023-06-04T12:46:20;21.90;99.90
21772;DHT22;11047;47.904;8.110;2023-06-04T12:48:47;22.00;99.90
21772;DHT22;11047;47.904;8.110;2023-06-04T12:51:16;22.20;99.90
21772;DHT22;11047;47.904;8.110;2023-06-04T12:53:43;22.70;99.90
21772;DHT22;11047;47.904;8.110;2023-06-04T12:56:10;23.10;99.90
21772;DHT22;11047;47.904;8.110;2023-06-04T12:58:37;23.20;99.90
21772;DHT22;11047;47.904;8.110;2023-06-04T13:01:04;23.20;99.90
21772;DHT22;11047;47.904;8.110;2023-06-04T13:03:32;23.60;99.90
21772;DHT22;11047;47.904;8.110;2023-06-04T13:05:59;24.00;99.90
21772;DHT22;11047;47.904;8.110;2023-06-04T13:08:27;23.80;99.90
21772;DHT22;11047;47.904;8.110;2023-06-04T13:10:55;23.70;99.90
21772;DHT22;11047;47.904;8.110;2023-06-04T13:13:22;23.70;99.90
21772;DHT22;11047;47.904;8.110;2023-06-04T13:15:49;23.30;99.90
21772;DHT22;11047;47.904;8.110;2023-06-04T13:18:16;23.00;99.90
21772;DHT22;11047;47.904;8.110;2023-06-04T13:20:42;22.80;99.90
21772;DHT22;11047;47.904;8.110;2023-06-04T13:23:09;22.60;99.90
21772;DHT22;11047;47.904;8.110;2023-06-04T13:25:39;22.20;99.90
21772;DHT22;11047;47.904;8.110;2023-06-04T13:28:06;22.10;99.90
21772;DHT22;11047;47.904;8.110;2023-06-04T13:30:35;22.20;99.90
21772;DHT22;11047;47.904;8.110;2023-06-04T13:33:02;22.70;99.90
21772;DHT22;11047;47.904;8.110;2023-06-04T13:35:29;23.00;99.90
21772;DHT22;11047;47.904;8.110;2023-06-04T13:37:56;23.40;99.90
21772;DHT22;11047;47.904;8.110;2023-06-04T13:40:23;23.30;99.90
21772;DHT22;11047;47.904;8.110;2023-06-04T13:42:51;23.00;99.90
21772;DHT22;11047;47.904;8.110;2023-06-04T13:45:18;22.80;99.90
21772;DHT22;11047;47.904;8.110;2023-06-04T13:47:45;22.40;99.90
21772;DHT22;11047;47.904;8.110;2023-06-04T13:50:13;22.40;99.90
21772;DHT22;11047;47.904;8.110;2023-06-04T13:52:40;22.20;99.90
21772;DHT22;11047;47.904;8.110;2023-06-04T13:55:07;22.20;99.90
21772;DHT22;11047;47.904;8.110;2023-06-04T13:57:34;22.00;99.90
21772;DHT22;11047;47.904;8.110;2023-06-04T14:00:03;21.90;99.90
21772;DHT22;11047;47.904;8.110;2023-06-04T14:02:32;21.70;99.90
21772;DHT22;11047;47.904;8.110;2023-06-04T14:04:59;21.60;99.90
21772;DHT22;11047;47.904;8.110;2023-06-04T14:07:26;21.50;99.90
21772;DHT22;11047;47.904;8.110;2023-06-04T14:09:53;21.50;99.90
21772;DHT22;11047;47.904;8.110;2023-06-04T14:12:21;21.30;99.90
21772;DHT22;11047;47.904;8.110;2023-06-04T14:14:48;21.40;99.90
21772;DHT22;11047;47.904;8.110;2023-06-04T14:17:16;21.40;99.90
21772;DHT22;11047;47.904;8.110;2023-06-04T14:19:43;21.30;99.90
21772;DHT22;11047;47.904;8.110;2023-06-04T14:22:11;21.20;99.90
21772;DHT22;11047;47.904;8.110;2023-06-04T14:24:39;21.20;99.90
21772;DHT22;11047;47.904;8.110;2023-06-04T14:27:06;21.20;99.90
21772;DHT22;11047;47.904;8.110;2023-06-04T14:29:35;21.30;99.90
21772;DHT22;11047;47.904;8.110;2023-06-04T14:32:02;21.30;99.90
21772;DHT22;11047;47.904;8.110;2023-06-04T14:34:30;21.30;99.90
21772;DHT22;11047;47.904;8.110;2023-06-04T14:36:58;21.30;99.90
21772;DHT22;11047;47.904;8.110;2023-06-04T14:39:25;21.30;99.90
21772;DHT22;11047;47.904;8.110;2023-06-04T14:41:52;21.30;99.90
21772;DHT22;11047;47.904;8.110;2023-06-04T14:44:19;21.40;99.90
21772;DHT22;11047;47.904;8.110;2023-06-04T14:46:48;21.50;99.90
21772;DHT22;11047;47.904;8.110;2023-06-04T14:49:15;21.70;99.90
21772;DHT22;11047;47.904;8.110;2023-06-04T14:51:43;22.10;99.90
21772;DHT22;11047;47.904;8.110;2023-06-04T14:54:10;22.30;99.90
21772;DHT22;11047;47.904;8.110;2023-06-04T14:56:37;22.40;99.90
21772;DHT22;11047;47.904;8.110;2023-06-04T14:59:04;22.10;99.90
21772;DHT22;11047;47.904;8.110;2023-06-04T15:01:34;21.90;99.90
21772;DHT22;11047;47.904;8.110;2023-06-04T15:04:02;21.80;99.90
21772;DHT22;11047;47.904;8.110;2023-06-04T15:06:29;21.70;99.90
21772;DHT22;11047;47.904;8.110;2023-06-04T15:08:57;21.70;99.90
21772;DHT22;11047;47.904;8.110;2023-06-04T15:11:24;21.60;99.90
21772;DHT22;11047;47.904;8.110;2023-06-04T15:13:52;21.60;99.90
21772;DHT22;11047;47.904;8.110;2023-06-04T15:16:19;21.50;99.90
21772;DHT22;11047;47.904;8.110;2023-06-04T15:18:46;21.40;99.90
21772;DHT22;11047;47.904;8.110;2023-06-04T15:21:13;21.50;99.90
21772;DHT22;11047;47.904;8.110;2023-06-04T15:23:40;21.50;99.90
21772;DHT22;11047;47.904;8.110;2023-06-04T15:26:11;21.50;99.90
21772;DHT22;11047;47.904;8.110;2023-06-04T15:28:37;21.60;99.90
21772;DHT22;11047;47.904;8.110;2023-06-04T15:31:04;21.60;99.90
21772;DHT22;11047;47.904;8.110;2023-06-04T15:33:31;21.70;99.90
21772;DHT22;11047;47.904;8.110;2023-06-04T15:35:58;21.70;99.90
21772;DHT22;11047;47.904;8.110;2023-06-04T15:38:25;21.80;99.90